Cedarville, OH

8:43 PM EDT on March 27, 2015 (GMT -0400)
Springfield-Beckley Municipal | | Change Station
CLOSE
Current Station
Airport
Location: Springfield,
Elevation: 1050 ft
Nearby Weather Stations

Elev 1050 ft 39.84 °N, 83.84 °W | Updated 47 minutes ago

Overcast
Overcast
26 °F
Feels Like 16 °F
N
10
Wind Variable Wind from NNW

Today
High -- | Low -- °F
--% Chance of Precip.
Yesterday
High -- | Low -- °F
Precip. -- in
7:27 AM 7:54 PM
First Quarter, 57% visible
Pressure 30.08 in
Visibility 7.0 miles
Clouds
Windchill 16 °F
Dew Point 16 °F
Humidity 66%
Rainfall 0.00 in
Snow Depth Not available.
UV Not available.
Pollen 6.00 out of 12
Air Quality Not available.
Flu Activity Not available.
METAR KSGH 272356Z AUTO 34009KT 7SM -SN M03/M09 A3004 RMK AO2 52011 60000 T10331088 11005 21033 UPB01E15B32E41SNB41 P0000 SLP185 $

More Conditions Fewer Conditions

Pressure 30.08 in
Visibility 7.0 miles
Clouds
Windchill 16 °F
Dew Point 16 °F
Humidity 66%
Rainfall 0.00 in
Snow Depth Not available.
UV Not available.
Pollen 6.00 out of 12
Air Quality Not available.
Flu Activity Not available.
METAR KSGH 272356Z AUTO 34009KT 7SM -SN M03/M09 A3004 RMK AO2 52011 60000 T10331088 11005 21033 UPB01E15B32E41SNB41 P0000 SLP185 $

More Conditions Fewer Conditions

10-Day Weather Forecast

Almanac

Astronomy

Mar. 27, 2015 Rise Set
Actual Time
Civil Twilight
Nautical Twilight
Astronomical Twilight
Moon
Length of Visible Light
Length of Day
Tomorrow will be .
, % of the Moon is Illuminated

Today's Extremes

State Highs State Lows

Community

WunderPhotos

Upload Photos

1,808,894 photos uploaded!

WunderBlogs® & News

Nearby

Air Quality

  Air Quality AQ Index Pollutant
Not available.

Snow Depth

Station Depth Elevation

Earthquake Activity

City Distance Mag. Time & Date
Minimum magnitude displayed is 2.5.

Coastal Water Temperatures

Place Temperature

Stations

Nearby Weather Stations

Station Location Temp. Windchill Dew Point Humidity Wind Precip. Elev Updated Type